sensor_id;sensor_type;location;lat;lon;timestamp;pressure;altitude;pressure_sealevel;temperature;humidity
57248;BME280;55809;46.618;10.764;2024-02-28T00:01:48;92816.38;;;3.07;100.00
57248;BME280;55809;46.618;10.764;2024-02-28T00:04:15;92793.81;;;2.81;100.00
57248;BME280;55809;46.618;10.764;2024-02-28T00:06:42;92820.50;;;3.04;100.00
57248;BME280;55809;46.618;10.764;2024-02-28T00:09:11;92819.97;;;3.18;100.00
57248;BME280;55809;46.618;10.764;2024-02-28T00:11:42;92830.84;;;3.06;100.00
57248;BME280;55809;46.618;10.764;2024-02-28T00:14:10;92826.41;;;2.94;100.00
57248;BME280;55809;46.618;10.764;2024-02-28T00:16:40;92835.19;;;2.95;100.00
57248;BME280;55809;46.618;10.764;2024-02-28T00:19:07;92830.28;;;2.97;100.00
57248;BME280;55809;46.618;10.764;2024-02-28T00:21:34;92829.97;;;3.02;100.00
57248;BME280;55809;46.618;10.764;2024-02-28T00:24:01;92836.06;;;3.02;100.00
57248;BME280;55809;46.618;10.764;2024-02-28T00:26:28;92832.63;;;3.02;100.00
57248;BME280;55809;46.618;10.764;2024-02-28T00:28:55;92833.66;;;2.94;100.00
57248;BME280;55809;46.618;10.764;2024-02-28T00:31:23;92770.69;;;2.47;100.00
57248;BME280;55809;46.618;10.764;2024-02-28T00:33:50;92840.19;;;2.96;100.00
57248;BME280;55809;46.618;10.764;2024-02-28T00:36:18;92848.25;;;3.00;100.00
57248;BME280;55809;46.618;10.764;2024-02-28T00:38:45;92845.63;;;3.23;100.00
57248;BME280;55809;46.618;10.764;2024-02-28T00:41:12;92767.66;;;2.68;100.00
57248;BME280;55809;46.618;10.764;2024-02-28T00:43:39;92842.88;;;3.19;100.00
57248;BME280;55809;46.618;10.764;2024-02-28T00:46:06;92847.84;;;3.21;100.00
57248;BME280;55809;46.618;10.764;2024-02-28T00:48:38;92848.13;;;3.16;100.00
57248;BME280;55809;46.618;10.764;2024-02-28T00:51:05;92852.47;;;3.24;100.00
57248;BME280;55809;46.618;10.764;2024-02-28T00:53:33;92851.72;;;3.23;100.00
57248;BME280;55809;46.618;10.764;2024-02-28T00:56:00;92849.00;;;3.20;100.00
57248;BME280;55809;46.618;10.764;2024-02-28T00:58:27;92857.31;;;3.18;100.00
57248;BME280;55809;46.618;10.764;2024-02-28T01:00:55;92849.75;;;3.20;100.00
57248;BME280;55809;46.618;10.764;2024-02-28T01:03:22;92840.13;;;3.16;100.00
57248;BME280;55809;46.618;10.764;2024-02-28T01:05:51;92849.38;;;3.22;100.00
57248;BME280;55809;46.618;10.764;2024-02-28T01:08:18;92847.56;;;3.26;100.00
57248;BME280;55809;46.618;10.764;2024-02-28T01:10:46;92850.09;;;3.19;100.00
57248;BME280;55809;46.618;10.764;2024-02-28T01:13:13;92844.13;;;3.25;100.00
57248;BME280;55809;46.618;10.764;2024-02-28T01:15:40;92789.59;;;2.80;100.00
57248;BME280;55809;46.618;10.764;2024-02-28T01:18:08;92844.69;;;3.15;100.00
57248;BME280;55809;46.618;10.764;2024-02-28T01:20:35;92842.03;;;2.96;100.00
57248;BME280;55809;46.618;10.764;2024-02-28T01:23:04;92854.91;;;3.10;100.00
57248;BME280;55809;46.618;10.764;2024-02-28T01:25:30;92852.91;;;3.26;100.00
57248;BME280;55809;46.618;10.764;2024-02-28T01:27:57;92846.84;;;3.29;100.00
57248;BME280;55809;46.618;10.764;2024-02-28T01:30:24;92824.84;;;3.13;100.00
57248;BME280;55809;46.618;10.764;2024-02-28T01:32:51;92850.47;;;3.17;100.00
57248;BME280;55809;46.618;10.764;2024-02-28T01:35:18;92808.41;;;2.88;100.00
57248;BME280;55809;46.618;10.764;2024-02-28T01:37:45;92853.81;;;3.14;100.00
57248;BME280;55809;46.618;10.764;2024-02-28T01:40:14;92853.88;;;3.18;100.00
57248;BME280;55809;46.618;10.764;2024-02-28T01:42:41;92842.09;;;3.19;100.00
57248;BME280;55809;46.618;10.764;2024-02-28T01:45:10;92849.38;;;3.22;100.00
57248;BME280;55809;46.618;10.764;2024-02-28T01:47:40;92853.25;;;3.24;100.00
57248;BME280;55809;46.618;10.764;2024-02-28T01:50:08;92854.00;;;3.25;100.00
57248;BME280;55809;46.618;10.764;2024-02-28T01:52:37;92845.03;;;3.33;100.00
57248;BME280;55809;46.618;10.764;2024-02-28T01:55:05;92847.31;;;3.35;100.00
57248;BME280;55809;46.618;10.764;2024-02-28T01:57:35;92786.50;;;2.98;100.00
57248;BME280;55809;46.618;10.764;2024-02-28T02:00:05;92852.25;;;3.33;100.00
57248;BME280;55809;46.618;10.764;2024-02-28T02:02:33;92852.47;;;3.24;100.00
57248;BME280;55809;46.618;10.764;2024-02-28T02:05:00;92852.34;;;3.17;100.00
57248;BME280;55809;46.618;10.764;2024-02-28T02:07:27;92854.59;;;3.15;100.00
57248;BME280;55809;46.618;10.764;2024-02-28T02:09:54;92855.28;;;3.12;100.00
57248;BME280;55809;46.618;10.764;2024-02-28T02:12:21;92809.38;;;2.79;100.00
57248;BME280;55809;46.618;10.764;2024-02-28T02:14:50;92855.03;;;3.17;100.00
57248;BME280;55809;46.618;10.764;2024-02-28T02:17:17;92859.22;;;3.18;100.00
57248;BME280;55809;46.618;10.764;2024-02-28T02:19:44;92852.63;;;3.12;100.00
57248;BME280;55809;46.618;10.764;2024-02-28T02:22:13;92852.44;;;3.01;100.00
57248;BME280;55809;46.618;10.764;2024-02-28T02:24:40;92759.13;;;2.39;100.00
57248;BME280;55809;46.618;10.764;2024-02-28T02:27:07;92857.91;;;3.08;100.00
57248;BME280;55809;46.618;10.764;2024-02-28T02:29:34;92852.06;;;3.02;100.00
57248;BME280;55809;46.618;10.764;2024-02-28T02:32:01;92848.16;;;2.96;100.00
57248;BME280;55809;46.618;10.764;2024-02-28T02:34:28;92861.97;;;3.02;100.00
57248;BME280;55809;46.618;10.764;2024-02-28T02:36:55;92861.69;;;3.07;100.00
57248;BME280;55809;46.618;10.764;2024-02-28T02:39:22;92853.00;;;3.10;100.00
57248;BME280;55809;46.618;10.764;2024-02-28T02:41:51;92849.91;;;3.08;100.00
57248;BME280;55809;46.618;10.764;2024-02-28T02:44:18;92856.38;;;3.07;100.00
57248;BME280;55809;46.618;10.764;2024-02-28T02:46:44;92857.06;;;3.04;100.00
57248;BME280;55809;46.618;10.764;2024-02-28T02:49:11;92857.78;;;3.01;100.00
57248;BME280;55809;46.618;10.764;2024-02-28T02:51:39;92855.59;;;3.07;100.00
57248;BME280;55809;46.618;10.764;2024-02-28T02:54:07;92857.63;;;3.13;100.00
57248;BME280;55809;46.618;10.764;2024-02-28T02:56:34;92858.59;;;3.05;100.00
57248;BME280;55809;46.618;10.764;2024-02-28T02:59:03;92856.69;;;3.05;100.00
57248;BME280;55809;46.618;10.764;2024-02-28T03:01:30;92863.28;;;3.12;100.00
57248;BME280;55809;46.618;10.764;2024-02-28T03:03:57;92865.06;;;3.04;100.00
57248;BME280;55809;46.618;10.764;2024-02-28T03:06:24;92862.75;;;3.02;100.00
57248;BME280;55809;46.618;10.764;2024-02-28T03:08:51;92866.53;;;3.01;100.00
57248;BME280;55809;46.618;10.764;2024-02-28T03:11:18;92868.16;;;3.06;100.00
57248;BME280;55809;46.618;10.764;2024-02-28T03:13:45;92870.03;;;3.05;100.00
57248;BME280;55809;46.618;10.764;2024-02-28T03:16:13;92870.03;;;3.05;100.00
57248;BME280;55809;46.618;10.764;2024-02-28T03:18:40;92873.50;;;3.06;100.00
57248;BME280;55809;46.618;10.764;2024-02-28T03:21:07;92842.75;;;2.93;100.00
57248;BME280;55809;46.618;10.764;2024-02-28T03:23:34;92723.66;;;2.16;100.00
57248;BME280;55809;46.618;10.764;2024-02-28T03:26:02;92883.88;;;3.11;100.00
57248;BME280;55809;46.618;10.764;2024-02-28T03:28:30;92879.03;;;3.17;100.00
57248;BME280;55809;46.618;10.764;2024-02-28T03:30:57;92876.88;;;3.03;100.00
57248;BME280;55809;46.618;10.764;2024-02-28T03:33:25;92884.94;;;3.07;100.00
57248;BME280;55809;46.618;10.764;2024-02-28T03:35:52;92887.88;;;3.01;100.00
57248;BME280;55809;46.618;10.764;2024-02-28T03:38:19;92895.09;;;3.01;100.00
57248;BME280;55809;46.618;10.764;2024-02-28T03:40:46;92893.97;;;3.02;100.00
57248;BME280;55809;46.618;10.764;2024-02-28T03:43:13;92895.78;;;2.98;100.00
57248;BME280;55809;46.618;10.764;2024-02-28T03:45:41;92899.22;;;2.98;100.00
57248;BME280;55809;46.618;10.764;2024-02-28T03:48:08;92901.56;;;3.00;100.00
57248;BME280;55809;46.618;10.764;2024-02-28T03:50:36;92896.50;;;2.95;100.00
57248;BME280;55809;46.618;10.764;2024-02-28T03:53:04;92906.38;;;2.94;100.00
57248;BME280;55809;46.618;10.764;2024-02-28T03:55:31;92912.22;;;3.00;100.00
57248;BME280;55809;46.618;10.764;2024-02-28T03:57:58;92904.22;;;3.00;100.00
57248;BME280;55809;46.618;10.764;2024-02-28T04:00:25;92917.13;;;2.98;100.00
57248;BME280;55809;46.618;10.764;2024-02-28T04:02:52;92913.75;;;3.01;100.00
57248;BME280;55809;46.618;10.764;2024-02-28T04:05:19;92919.03;;;2.97;100.00
57248;BME280;55809;46.618;10.764;2024-02-28T04:07:47;92919.66;;;2.91;100.00
57248;BME280;55809;46.618;10.764;2024-02-28T04:10:15;92921.63;;;2.94;100.00
57248;BME280;55809;46.618;10.764;2024-02-28T04:12:42;92917.19;;;3.01;100.00
57248;BME280;55809;46.618;10.764;2024-02-28T04:15:10;92927.72;;;2.94;100.00
57248;BME280;55809;46.618;10.764;2024-02-28T04:17:37;92931.44;;;2.90;100.00
57248;BME280;55809;46.618;10.764;2024-02-28T04:20:08;92932.13;;;2.87;100.00
57248;BME280;55809;46.618;10.764;2024-02-28T04:22:35;92942.59;;;2.95;100.00
57248;BME280;55809;46.618;10.764;2024-02-28T04:25:04;92929.56;;;3.10;100.00
57248;BME280;55809;46.618;10.764;2024-02-28T04:27:31;92931.94;;;3.15;100.00
57248;BME280;55809;46.618;10.764;2024-02-28T04:29:58;92931.09;;;3.30;100.00
57248;BME280;55809;46.618;10.764;2024-02-28T04:32:25;92935.03;;;3.36;100.00
57248;BME280;55809;46.618;10.764;2024-02-28T04:34:52;92932.69;;;3.35;100.00
57248;BME280;55809;46.618;10.764;2024-02-28T04:37:18;92925.41;;;3.32;100.00
57248;BME280;55809;46.618;10.764;2024-02-28T04:39:45;92870.47;;;2.88;100.00
57248;BME280;55809;46.618;10.764;2024-02-28T04:42:15;92937.53;;;3.29;100.00
57248;BME280;55809;46.618;10.764;2024-02-28T04:44:42;92942.97;;;3.33;100.00
57248;BME280;55809;46.618;10.764;2024-02-28T04:47:09;92935.28;;;3.31;100.00
57248;BME280;55809;46.618;10.764;2024-02-28T04:49:37;92864.09;;;2.73;100.00
57248;BME280;55809;46.618;10.764;2024-02-28T04:52:05;92939.94;;;3.15;100.00
57248;BME280;55809;46.618;10.764;2024-02-28T04:54:32;92944.38;;;3.26;100.00
57248;BME280;55809;46.618;10.764;2024-02-28T04:56:59;92944.63;;;3.21;100.00
57248;BME280;55809;46.618;10.764;2024-02-28T04:59:27;92945.75;;;3.20;100.00
57248;BME280;55809;46.618;10.764;2024-02-28T05:01:54;92942.78;;;3.25;100.00
57248;BME280;55809;46.618;10.764;2024-02-28T05:04:21;92948.56;;;3.27;100.00
57248;BME280;55809;46.618;10.764;2024-02-28T05:06:49;92944.44;;;3.30;100.00
57248;BME280;55809;46.618;10.764;2024-02-28T05:09:16;92930.41;;;3.14;100.00
57248;BME280;55809;46.618;10.764;2024-02-28T05:11:43;92949.25;;;3.24;100.00
57248;BME280;55809;46.618;10.764;2024-02-28T05:14:10;92952.22;;;3.19;100.00
57248;BME280;55809;46.618;10.764;2024-02-28T05:16:39;92943.78;;;3.17;100.00
57248;BME280;55809;46.618;10.764;2024-02-28T05:19:06;92946.09;;;3.19;100.00
57248;BME280;55809;46.618;10.764;2024-02-28T05:21:39;92948.44;;;3.20;100.00
57248;BME280;55809;46.618;10.764;2024-02-28T05:24:06;92946.16;;;3.22;100.00
57248;BME280;55809;46.618;10.764;2024-02-28T05:26:34;92925.25;;;3.05;100.00
57248;BME280;55809;46.618;10.764;2024-02-28T05:29:02;92958.16;;;3.32;100.00
57248;BME280;55809;46.618;10.764;2024-02-28T05:31:29;92948.28;;;3.33;100.00
57248;BME280;55809;46.618;10.764;2024-02-28T05:33:59;92879.59;;;2.87;100.00
57248;BME280;55809;46.618;10.764;2024-02-28T05:36:28;92951.50;;;3.42;100.00
57248;BME280;55809;46.618;10.764;2024-02-28T05:38:56;92955.84;;;3.50;100.00
57248;BME280;55809;46.618;10.764;2024-02-28T05:41:24;92950.59;;;3.53;100.00
57248;BME280;55809;46.618;10.764;2024-02-28T05:43:51;92951.28;;;3.50;100.00
57248;BME280;55809;46.618;10.764;2024-02-28T05:46:18;92952.00;;;3.47;100.00
57248;BME280;55809;46.618;10.764;2024-02-28T05:48:47;92953.53;;;3.48;100.00
57248;BME280;55809;46.618;10.764;2024-02-28T05:51:16;92875.31;;;3.02;100.00
57248;BME280;55809;46.618;10.764;2024-02-28T05:53:43;92959.22;;;3.47;100.00
57248;BME280;55809;46.618;10.764;2024-02-28T05:56:10;92839.03;;;2.58;100.00
57248;BME280;55809;46.618;10.764;2024-02-28T05:58:40;92956.56;;;3.27;100.00
57248;BME280;55809;46.618;10.764;2024-02-28T06:01:08;92957.56;;;3.19;100.00
57248;BME280;55809;46.618;10.764;2024-02-28T06:03:35;92958.03;;;3.25;100.00
57248;BME280;55809;46.618;10.764;2024-02-28T06:06:03;92964.69;;;3.15;100.00
57248;BME280;55809;46.618;10.764;2024-02-28T06:08:33;92853.88;;;2.40;100.00
57248;BME280;55809;46.618;10.764;2024-02-28T06:11:01;92972.56;;;3.08;100.00
57248;BME280;55809;46.618;10.764;2024-02-28T06:13:28;92973.06;;;3.14;100.00
57248;BME280;55809;46.618;10.764;2024-02-28T06:15:55;92979.59;;;3.16;100.00
57248;BME280;55809;46.618;10.764;2024-02-28T06:18:22;92985.13;;;3.27;100.00
57248;BME280;55809;46.618;10.764;2024-02-28T06:20:52;92900.47;;;2.66;100.00
57248;BME280;55809;46.618;10.764;2024-02-28T06:23:19;92981.75;;;3.11;100.00
57248;BME280;55809;46.618;10.764;2024-02-28T06:25:48;92987.09;;;3.11;100.00
57248;BME280;55809;46.618;10.764;2024-02-28T06:28:15;92990.53;;;3.11;100.00
57248;BME280;55809;46.618;10.764;2024-02-28T06:30:42;92993.97;;;3.12;100.00
57248;BME280;55809;46.618;10.764;2024-02-28T06:33:13;92988.69;;;3.15;100.00
57248;BME280;55809;46.618;10.764;2024-02-28T06:35:40;92989.56;;;3.19;100.00
57248;BME280;55809;46.618;10.764;2024-02-28T06:38:09;92998.34;;;3.20;100.00
57248;BME280;55809;46.618;10.764;2024-02-28T06:40:37;93007.94;;;3.24;100.00
57248;BME280;55809;46.618;10.764;2024-02-28T06:43:10;93008.09;;;3.32;100.00
57248;BME280;55809;46.618;10.764;2024-02-28T06:45:38;93012.31;;;3.33;100.00
57248;BME280;55809;46.618;10.764;2024-02-28T06:48:07;93009.97;;;3.12;100.00
57248;BME280;55809;46.618;10.764;2024-02-28T06:50:37;93022.88;;;3.10;100.00
57248;BME280;55809;46.618;10.764;2024-02-28T06:53:05;93019.44;;;3.09;100.00
57248;BME280;55809;46.618;10.764;2024-02-28T06:55:34;93020.28;;;3.13;100.00
57248;BME280;55809;46.618;10.764;2024-02-28T06:58:02;93022.53;;;3.11;100.00
57248;BME280;55809;46.618;10.764;2024-02-28T07:00:31;92977.72;;;2.81;100.00
57248;BME280;55809;46.618;10.764;2024-02-28T07:03:00;93022.81;;;3.25;100.00
57248;BME280;55809;46.618;10.764;2024-02-28T07:05:28;93027.13;;;3.30;100.00
57248;BME280;55809;46.618;10.764;2024-02-28T07:07:56;93034.97;;;3.23;100.00
57248;BME280;55809;46.618;10.764;2024-02-28T07:10:24;93043.63;;;3.36;100.00
57248;BME280;55809;46.618;10.764;2024-02-28T07:12:55;93042.00;;;3.31;100.00
57248;BME280;55809;46.618;10.764;2024-02-28T07:15:23;93047.00;;;3.33;100.00
57248;BME280;55809;46.618;10.764;2024-02-28T07:17:53;93046.16;;;3.48;100.00
57248;BME280;55809;46.618;10.764;2024-02-28T07:20:21;93049.38;;;3.57;100.00
57248;BME280;55809;46.618;10.764;2024-02-28T07:22:50;93048.19;;;3.55;100.00
57248;BME280;55809;46.618;10.764;2024-02-28T07:25:17;93051.91;;;3.50;100.00
57248;BME280;55809;46.618;10.764;2024-02-28T07:27:45;93056.50;;;3.49;100.00
57248;BME280;55809;46.618;10.764;2024-02-28T07:30:21;93060.00;;;4.58;100.00
57248;BME280;55809;46.618;10.764;2024-02-28T07:32:49;93058.44;;;5.06;100.00
57248;BME280;55809;46.618;10.764;2024-02-28T07:35:22;93069.59;;;4.85;100.00
57248;BME280;55809;46.618;10.764;2024-02-28T07:37:51;93080.75;;;4.64;100.00
57248;BME280;55809;46.618;10.764;2024-02-28T07:40:19;93083.03;;;4.89;100.00
57248;BME280;55809;46.618;10.764;2024-02-28T07:42:47;93088.81;;;5.44;100.00
57248;BME280;55809;46.618;10.764;2024-02-28T07:45:18;93093.25;;;5.59;100.00
57248;BME280;55809;46.618;10.764;2024-02-28T07:47:46;93107.84;;;5.65;100.00
57248;BME280;55809;46.618;10.764;2024-02-28T07:50:15;93105.56;;;5.94;100.00
57248;BME280;55809;46.618;10.764;2024-02-28T07:52:45;93113.78;;;5.82;100.00
57248;BME280;55809;46.618;10.764;2024-02-28T07:55:15;93115.31;;;5.79;100.00
57248;BME280;55809;46.618;10.764;2024-02-28T07:57:43;93126.44;;;5.55;100.00
57248;BME280;55809;46.618;10.764;2024-02-28T08:00:13;93130.97;;;5.51;100.00
57248;BME280;55809;46.618;10.764;2024-02-28T08:02:43;93135.59;;;5.80;100.00
57248;BME280;55809;46.618;10.764;2024-02-28T08:05:11;93140.25;;;5.87;100.00
57248;BME280;55809;46.618;10.764;2024-02-28T08:07:42;93157.38;;;5.52;100.00
57248;BME280;55809;46.618;10.764;2024-02-28T08:10:12;93156.44;;;5.14;100.00
57248;BME280;55809;46.618;10.764;2024-02-28T08:12:42;93155.66;;;4.91;100.00
57248;BME280;55809;46.618;10.764;2024-02-28T08:15:11;93164.50;;;4.72;100.00
57248;BME280;55809;46.618;10.764;2024-02-28T08:17:43;93170.44;;;4.62;100.00
57248;BME280;55809;46.618;10.764;2024-02-28T08:20:11;93166.56;;;4.59;100.00
57248;BME280;55809;46.618;10.764;2024-02-28T08:22:42;93167.84;;;4.46;100.00
57248;BME280;55809;46.618;10.764;2024-02-28T08:25:15;93177.41;;;4.47;100.00
57248;BME280;55809;46.618;10.764;2024-02-28T08:27:43;93188.78;;;4.44;100.00
57248;BME280;55809;46.618;10.764;2024-02-28T08:30:12;93181.97;;;4.46;100.00
57248;BME280;55809;46.618;10.764;2024-02-28T08:32:44;93189.44;;;4.37;100.00
57248;BME280;55809;46.618;10.764;2024-02-28T08:35:14;93196.22;;;4.31;100.00
57248;BME280;55809;46.618;10.764;2024-02-28T08:37:43;93195.28;;;4.23;100.00
57248;BME280;55809;46.618;10.764;2024-02-28T08:40:16;93187.69;;;4.06;100.00
57248;BME280;55809;46.618;10.764;2024-02-28T08:42:44;93199.97;;;4.11;100.00
57248;BME280;55809;46.618;10.764;2024-02-28T08:45:13;93204.03;;;4.05;100.00
57248;BME280;55809;46.618;10.764;2024-02-28T08:47:41;93205.94;;;4.04;100.00
57248;BME280;55809;46.618;10.764;2024-02-28T08:50:11;93199.94;;;3.91;100.00
57248;BME280;55809;46.618;10.764;2024-02-28T08:52:39;93218.91;;;4.02;100.00
57248;BME280;55809;46.618;10.764;2024-02-28T08:55:08;93223.09;;;4.03;100.00
57248;BME280;55809;46.618;10.764;2024-02-28T08:57:37;93219.81;;;4.10;100.00
57248;BME280;55809;46.618;10.764;2024-02-28T09:00:06;93219.19;;;4.16;100.00
57248;BME280;55809;46.618;10.764;2024-02-28T09:02:40;93222.75;;;4.24;100.00
57248;BME280;55809;46.618;10.764;2024-02-28T09:05:08;93221.78;;;4.32;100.00
57248;BME280;55809;46.618;10.764;2024-02-28T09:07:39;93223.91;;;4.42;100.00
57248;BME280;55809;46.618;10.764;2024-02-28T09:10:09;93232.56;;;4.55;100.00
57248;BME280;55809;46.618;10.764;2024-02-28T09:12:40;93228.03;;;4.59;100.00
57248;BME280;55809;46.618;10.764;2024-02-28T09:15:08;93231.28;;;4.68;100.00
57248;BME280;55809;46.618;10.764;2024-02-28T09:17:36;93207.09;;;4.61;100.00
57248;BME280;55809;46.618;10.764;2024-02-28T09:20:03;93205.25;;;4.65;100.00
57248;BME280;55809;46.618;10.764;2024-02-28T09:22:33;93237.94;;;4.98;100.00
57248;BME280;55809;46.618;10.764;2024-02-28T09:25:02;93202.59;;;4.88;100.00
57248;BME280;55809;46.618;10.764;2024-02-28T09:27:31;93239.38;;;5.14;100.00
57248;BME280;55809;46.618;10.764;2024-02-28T09:30:01;93245.31;;;5.27;100.00
57248;BME280;55809;46.618;10.764;2024-02-28T09:32:29;93227.47;;;5.35;100.00
57248;BME280;55809;46.618;10.764;2024-02-28T09:34:57;93225.44;;;5.51;100.00
57248;BME280;55809;46.618;10.764;2024-02-28T09:37:26;93229.44;;;5.87;100.00
57248;BME280;55809;46.618;10.764;2024-02-28T09:39:54;93244.34;;;6.11;100.00
57248;BME280;55809;46.618;10.764;2024-02-28T09:42:21;93241.69;;;6.42;100.00
57248;BME280;55809;46.618;10.764;2024-02-28T09:44:49;93230.97;;;6.75;100.00
57248;BME280;55809;46.618;10.764;2024-02-28T09:47:19;93229.69;;;6.99;100.00
57248;BME280;55809;46.618;10.764;2024-02-28T09:49:50;93196.28;;;6.93;100.00
57248;BME280;55809;46.618;10.764;2024-02-28T09:52:22;93240.41;;;7.37;100.00
57248;BME280;55809;46.618;10.764;2024-02-28T09:54:50;93248.28;;;7.60;100.00
57248;BME280;55809;46.618;10.764;2024-02-28T09:57:18;93253.00;;;7.73;100.00
57248;BME280;55809;46.618;10.764;2024-02-28T09:59:47;93247.75;;;7.91;100.00
57248;BME280;55809;46.618;10.764;2024-02-28T10:02:19;93253.22;;;8.06;100.00
57248;BME280;55809;46.618;10.764;2024-02-28T10:04:48;93239.94;;;8.27;100.00
57248;BME280;55809;46.618;10.764;2024-02-28T10:07:17;93183.03;;;8.18;100.00
57248;BME280;55809;46.618;10.764;2024-02-28T10:09:48;93238.03;;;9.22;100.00
57248;BME280;55809;46.618;10.764;2024-02-28T10:12:16;93236.50;;;9.28;100.00
57248;BME280;55809;46.618;10.764;2024-02-28T10:14:49;93232.66;;;9.36;100.00
57248;BME280;55809;46.618;10.764;2024-02-28T10:17:19;93234.19;;;9.37;100.00
57248;BME280;55809;46.618;10.764;2024-02-28T10:19:48;93235.31;;;9.22;100.00
57248;BME280;55809;46.618;10.764;2024-02-28T10:22:16;93235.34;;;9.36;100.00
57248;BME280;55809;46.618;10.764;2024-02-28T10:24:43;93245.75;;;9.52;100.00
57248;BME280;55809;46.618;10.764;2024-02-28T10:27:15;93242.69;;;9.65;100.00
57248;BME280;55809;46.618;10.764;2024-02-28T10:29:46;93247.28;;;9.53;100.00
57248;BME280;55809;46.618;10.764;2024-02-28T10:32:14;93245.34;;;9.39;100.00
57248;BME280;55809;46.618;10.764;2024-02-28T10:34:44;93244.56;;;9.25;100.00
57248;BME280;55809;46.618;10.764;2024-02-28T10:37:13;93255.31;;;9.21;100.00
57248;BME280;55809;46.618;10.764;2024-02-28T10:39:44;93251.47;;;9.15;100.00
57248;BME280;55809;46.618;10.764;2024-02-28T10:42:13;93250.66;;;9.00;100.00
57248;BME280;55809;46.618;10.764;2024-02-28T10:44:47;93247.56;;;8.98;100.00
57248;BME280;55809;46.618;10.764;2024-02-28T10:47:18;93246.78;;;9.01;100.00
57248;BME280;55809;46.618;10.764;2024-02-28T10:49:51;93249.03;;;8.78;100.00
57248;BME280;55809;46.618;10.764;2024-02-28T10:52:22;93223.56;;;8.57;100.00
57248;BME280;55809;46.618;10.764;2024-02-28T10:54:53;93255.13;;;8.64;100.00
57248;BME280;55809;46.618;10.764;2024-02-28T10:57:26;93253.50;;;8.45;100.00
57248;BME280;55809;46.618;10.764;2024-02-28T10:59:58;93247.25;;;8.34;100.00
57248;BME280;55809;46.618;10.764;2024-02-28T11:02:26;93257.13;;;8.15;100.00
57248;BME280;55809;46.618;10.764;2024-02-28T11:05:00;93249.75;;;8.05;100.00
57248;BME280;55809;46.618;10.764;2024-02-28T11:07:27;93250.59;;;8.13;100.00
57248;BME280;55809;46.618;10.764;2024-02-28T11:09:55;93252.84;;;8.04;100.00
57248;BME280;55809;46.618;10.764;2024-02-28T11:12:27;93249.03;;;8.08;100.00
57248;BME280;55809;46.618;10.764;2024-02-28T11:14:58;93223.97;;;7.93;100.00
57248;BME280;55809;46.618;10.764;2024-02-28T11:17:27;93253.28;;;8.13;100.00
57248;BME280;55809;46.618;10.764;2024-02-28T11:20:11;93249.44;;;8.10;100.00
57248;BME280;55809;46.618;10.764;2024-02-28T11:22:39;93252.47;;;8.09;100.00
57248;BME280;55809;46.618;10.764;2024-02-28T11:25:08;93250.22;;;8.14;100.00
57248;BME280;55809;46.618;10.764;2024-02-28T11:27:45;93251.75;;;8.15;100.00
57248;BME280;55809;46.618;10.764;2024-02-28T11:30:14;93108.47;;;7.38;100.00
57248;BME280;55809;46.618;10.764;2024-02-28T11:32:42;93211.78;;;8.10;100.00
57248;BME280;55809;46.618;10.764;2024-02-28T11:35:12;93244.63;;;8.41;100.00
57248;BME280;55809;46.618;10.764;2024-02-28T11:37:41;93238.91;;;8.42;100.00
57248;BME280;55809;46.618;10.764;2024-02-28T11:40:10;93241.22;;;8.48;100.00
57248;BME280;55809;46.618;10.764;2024-02-28T11:42:38;93236.56;;;8.41;100.00
57248;BME280;55809;46.618;10.764;2024-02-28T11:45:09;93223.88;;;8.38;100.00
57248;BME280;55809;46.618;10.764;2024-02-28T11:47:36;93230.81;;;8.42;100.00
57248;BME280;55809;46.618;10.764;2024-02-28T11:50:07;93194.19;;;8.20;100.00
57248;BME280;55809;46.618;10.764;2024-02-28T11:52:36;93222.66;;;8.35;100.00
57248;BME280;55809;46.618;10.764;2024-02-28T11:55:04;93218.09;;;8.36;100.00
57248;BME280;55809;46.618;10.764;2024-02-28T11:57:33;93216.16;;;8.36;100.00
57248;BME280;55809;46.618;10.764;2024-02-28T12:00:03;93211.50;;;8.26;100.00
57248;BME280;55809;46.618;10.764;2024-02-28T12:02:32;93204.56;;;8.25;100.00
57248;BME280;55809;46.618;10.764;2024-02-28T12:05:04;93203.44;;;8.30;100.00
57248;BME280;55809;46.618;10.764;2024-02-28T12:07:33;93199.69;;;8.41;100.00
57248;BME280;55809;46.618;10.764;2024-02-28T12:10:09;93180.47;;;8.39;100.00
57248;BME280;55809;46.618;10.764;2024-02-28T12:12:36;93169.75;;;8.47;100.00
57248;BME280;55809;46.618;10.764;2024-02-28T12:15:05;93168.63;;;8.62;100.00
57248;BME280;55809;46.618;10.764;2024-02-28T12:17:35;93188.69;;;8.86;100.00
57248;BME280;55809;46.618;10.764;2024-02-28T12:20:05;93118.25;;;8.48;100.00
57248;BME280;55809;46.618;10.764;2024-02-28T12:22:32;93139.06;;;8.65;100.00
57248;BME280;55809;46.618;10.764;2024-02-28T12:25:00;93185.66;;;9.02;100.00
57248;BME280;55809;46.618;10.764;2024-02-28T12:27:34;93146.75;;;8.74;100.00
57248;BME280;55809;46.618;10.764;2024-02-28T12:30:01;93136.38;;;8.73;100.00
57248;BME280;55809;46.618;10.764;2024-02-28T12:32:30;93111.34;;;8.61;100.00
57248;BME280;55809;46.618;10.764;2024-02-28T12:34:58;93147.91;;;8.73;100.00
57248;BME280;55809;46.618;10.764;2024-02-28T12:37:35;93162.16;;;8.91;100.00
57248;BME280;55809;46.618;10.764;2024-02-28T12:40:06;93091.34;;;8.44;100.00
57248;BME280;55809;46.618;10.764;2024-02-28T12:42:37;93156.41;;;8.97;100.00
57248;BME280;55809;46.618;10.764;2024-02-28T12:45:05;93151.03;;;9.04;100.00
57248;BME280;55809;46.618;10.764;2024-02-28T12:47:34;93152.19;;;9.06;100.00
57248;BME280;55809;46.618;10.764;2024-02-28T12:50:03;93138.75;;;9.10;100.00
57248;BME280;55809;46.618;10.764;2024-02-28T12:52:32;93142.22;;;9.32;100.00
57248;BME280;55809;46.618;10.764;2024-02-28T12:54:59;93142.22;;;9.53;100.00
57248;BME280;55809;46.618;10.764;2024-02-28T12:57:26;93123.72;;;9.70;100.00